createdAt,value
2022-09-06T00:01:55.706Z,6.20
2022-09-06T00:04:22.291Z,5.95
2022-09-06T00:06:49.081Z,5.05
2022-09-06T00:09:15.722Z,6.57
2022-09-06T00:11:42.256Z,6.75
2022-09-06T00:14:08.767Z,6.43
2022-09-06T00:16:35.554Z,6.82
2022-09-06T00:19:02.141Z,8.43
2022-09-06T00:21:30.558Z,8.40
2022-09-06T00:23:59.159Z,8.18
2022-09-06T00:26:26.006Z,7.63
2022-09-06T00:28:52.801Z,8.25
2022-09-06T00:31:22.458Z,6.55
2022-09-06T00:33:49.583Z,7.43
2022-09-06T00:36:16.222Z,8.80
2022-09-06T00:38:43.848Z,7.55
2022-09-06T00:41:13.014Z,7.43
2022-09-06T00:43:41.057Z,8.10
2022-09-06T00:46:10.702Z,6.10
2022-09-06T00:48:41.595Z,6.63
2022-09-06T00:51:13.083Z,6.20
2022-09-06T00:53:39.927Z,6.30
2022-09-06T00:56:06.861Z,7.68
2022-09-06T00:58:35.403Z,7.95
2022-09-06T01:01:01.942Z,7.93
2022-09-06T01:03:28.523Z,7.97
2022-09-06T01:06:05.725Z,7.38
2022-09-06T01:08:58.748Z,6.47
2022-09-06T01:11:34.381Z,7.75
2022-09-06T01:14:19.263Z,9.82
2022-09-06T01:17:21.899Z,6.70
2022-09-06T01:20:22.500Z,7.38
2022-09-06T01:23:35.694Z,8.68
2022-09-06T01:26:41.260Z,7.85
2022-09-06T01:29:23.504Z,9.10
2022-09-06T01:31:56.857Z,8.82
2022-09-06T01:34:31.882Z,9.02
2022-09-06T01:37:12.658Z,9.13
2022-09-06T01:39:41.324Z,8.57
2022-09-06T01:42:15.773Z,11.32
2022-09-06T01:45:06.806Z,9.10
2022-09-06T01:47:33.355Z,9.38
2022-09-06T01:50:08.940Z,11.32
2022-09-06T01:52:52.091Z,9.15
2022-09-06T01:55:32.226Z,10.05
2022-09-06T01:58:09.708Z,10.55
2022-09-06T02:00:57.191Z,10.85
2022-09-06T02:03:55.627Z,12.40
2022-09-06T02:06:32.997Z,10.30
2022-09-06T02:09:06.479Z,11.00
2022-09-06T02:11:48.470Z,10.85
2022-09-06T02:14:21.557Z,9.90
2022-09-06T02:16:53.132Z,9.82
2022-09-06T02:19:57.460Z,11.02
2022-09-06T02:22:29.972Z,10.93
2022-09-06T02:24:59.482Z,10.45
2022-09-06T02:27:26.412Z,11.05
2022-09-06T02:29:53.127Z,9.70
2022-09-06T02:32:22.698Z,9.77
2022-09-06T02:34:52.342Z,11.10
2022-09-06T02:37:20.846Z,10.00
2022-09-06T02:39:47.591Z,11.48
2022-09-06T02:42:15.928Z,11.57
2022-09-06T02:44:42.470Z,10.52
2022-09-06T02:47:09.218Z,10.98
2022-09-06T02:49:35.854Z,11.18
2022-09-06T02:52:02.523Z,11.20
2022-09-06T02:54:29.129Z,14.48
2022-09-06T02:56:55.873Z,11.13
2022-09-06T02:59:22.369Z,11.75
2022-09-06T03:01:48.938Z,13.02
2022-09-06T03:04:15.526Z,12.75
2022-09-06T03:06:42.254Z,12.57
2022-09-06T03:09:10.509Z,12.93
2022-09-06T03:11:40.247Z,12.35
2022-09-06T03:14:06.808Z,13.18
2022-09-06T03:16:33.384Z,12.15
2022-09-06T03:18:59.939Z,11.40
2022-09-06T03:21:26.519Z,11.85
2022-09-06T03:23:53.139Z,11.98
2022-09-06T03:26:19.738Z,13.82
2022-09-06T03:28:46.545Z,11.65
2022-09-06T03:31:13.244Z,11.73
2022-09-06T03:33:39.913Z,12.80
2022-09-06T03:36:06.698Z,12.68
2022-09-06T03:38:33.468Z,12.57
2022-09-06T03:41:00.113Z,10.65
2022-09-06T03:43:27.538Z,13.00
2022-09-06T03:45:57.391Z,12.82
2022-09-06T03:48:27.055Z,13.70
2022-09-06T03:50:55.716Z,10.63
2022-09-06T03:53:23.867Z,12.70
2022-09-06T03:55:53.232Z,14.18
2022-09-06T03:58:22.325Z,11.90
2022-09-06T04:00:49.121Z,12.63
2022-09-06T04:03:15.915Z,12.27
2022-09-06T04:05:46.563Z,11.93
2022-09-06T04:08:13.307Z,11.02
2022-09-06T04:10:40.006Z,12.23
2022-09-06T04:13:06.544Z,12.20
2022-09-06T04:15:33.026Z,11.27
2022-09-06T04:17:59.775Z,11.75
2022-09-06T04:20:26.463Z,10.43
2022-09-06T04:22:53.705Z,9.88
2022-09-06T04:25:20.260Z,11.32
2022-09-06T04:27:46.941Z,12.10
2022-09-06T04:30:13.538Z,11.45
2022-09-06T04:32:40.602Z,11.27
2022-09-06T04:35:07.617Z,10.40
2022-09-06T04:37:34.257Z,9.70
2022-09-06T04:40:00.877Z,12.13
2022-09-06T04:42:27.464Z,11.75
2022-09-06T04:44:54.018Z,11.85
2022-09-06T04:47:20.852Z,10.55
2022-09-06T04:49:49.537Z,9.20
2022-09-06T04:52:16.731Z,9.63
2022-09-06T04:54:43.904Z,10.82
2022-09-06T04:57:11.509Z,11.82
2022-09-06T04:59:38.127Z,11.02
2022-09-06T05:02:04.819Z,10.85
2022-09-06T05:04:31.457Z,10.50
2022-09-06T05:07:05.071Z,10.43
2022-09-06T05:09:33.047Z,12.27
2022-09-06T05:11:59.982Z,10.25
2022-09-06T05:14:27.669Z,10.73
2022-09-06T05:17:03.585Z,11.27
2022-09-06T05:19:30.144Z,12.10
2022-09-06T05:21:56.825Z,11.82
2022-09-06T05:24:23.423Z,12.07
2022-09-06T05:26:50.078Z,11.32
2022-09-06T05:29:16.560Z,10.90
2022-09-06T05:31:43.132Z,10.77
2022-09-06T05:34:10.607Z,11.63
2022-09-06T05:36:38.767Z,11.18
2022-09-06T05:39:05.381Z,12.25
2022-09-06T05:41:32.898Z,10.40
2022-09-06T05:43:59.840Z,12.15
2022-09-06T05:46:26.708Z,11.63
2022-09-06T05:49:01.296Z,10.82
2022-09-06T05:51:27.874Z,14.68
2022-09-06T05:53:54.417Z,11.52
2022-09-06T05:56:22.426Z,10.73
2022-09-06T05:58:52.171Z,11.32
2022-09-06T06:01:21.755Z,12.73
2022-09-06T06:04:00.185Z,11.00
2022-09-06T06:06:31.950Z,12.27
2022-09-06T06:09:02.691Z,11.73
2022-09-06T06:11:31.166Z,12.93
2022-09-06T06:13:58.920Z,12.65
2022-09-06T06:16:25.666Z,14.60
2022-09-06T06:19:58.814Z,15.35
2022-09-06T06:22:25.307Z,15.52
2022-09-06T06:24:51.859Z,19.25
2022-09-06T06:27:21.849Z,12.10
2022-09-06T06:29:48.499Z,11.90
2022-09-06T06:32:15.021Z,13.35
2022-09-06T06:34:41.656Z,11.20
2022-09-06T06:37:44.720Z,12.10
2022-09-06T06:40:11.713Z,15.20
2022-09-06T06:42:38.517Z,13.48
2022-09-06T06:45:05.577Z,14.00
2022-09-06T06:47:49.834Z,13.52
2022-09-06T06:50:16.803Z,13.85
2022-09-06T06:52:43.326Z,13.13
2022-09-06T06:55:10.040Z,14.15
2022-09-06T07:01:17.809Z,14.40
2022-09-06T07:03:44.803Z,15.32
2022-09-06T07:06:12.402Z,15.27
2022-09-06T07:08:59.771Z,13.00
2022-09-06T07:11:26.261Z,14.18
2022-09-06T07:13:55.526Z,13.70
2022-09-06T07:16:24.209Z,14.77
2022-09-06T07:19:02.234Z,16.88
2022-09-06T07:26:30.688Z,15.25
2022-09-06T07:29:01.854Z,16.52
2022-09-06T07:34:17.752Z,15.57
2022-09-06T07:36:46.623Z,15.05
2022-09-06T07:39:15.405Z,15.63
2022-09-06T07:41:43.282Z,14.85
2022-09-06T07:44:10.239Z,14.45
2022-09-06T07:46:36.787Z,14.60
2022-09-06T07:49:06.739Z,18.45
2022-09-06T07:51:34.305Z,16.27
2022-09-06T07:54:29.205Z,15.93
2022-09-06T07:56:48.608Z,15.80
2022-09-06T07:59:15.334Z,16.10
2022-09-06T08:01:42.106Z,15.15
2022-09-06T08:04:13.989Z,15.80
2022-09-06T08:11:56.209Z,14.38
2022-09-06T08:14:22.793Z,14.38
2022-09-06T08:17:22.723Z,14.48
2022-09-06T08:19:51.091Z,15.68
2022-09-06T08:22:17.626Z,15.10
2022-09-06T08:24:44.171Z,14.57
2022-09-06T08:27:11.916Z,14.63
2022-09-06T08:29:39.898Z,14.13
2022-09-06T08:32:06.575Z,13.70
2022-09-06T08:34:33.143Z,13.50
2022-09-06T08:37:00.222Z,14.82
2022-09-06T08:39:26.850Z,13.98
2022-09-06T08:41:53.799Z,14.02
2022-09-06T08:47:33.852Z,13.63
2022-09-06T08:50:06.578Z,17.20
2022-09-06T08:52:33.338Z,11.65
2022-09-06T08:55:18.658Z,12.23
2022-09-06T08:58:01.742Z,12.27
2022-09-06T09:00:28.395Z,11.32
2022-09-06T09:03:19.670Z,10.23
2022-09-06T09:05:50.113Z,11.10
2022-09-06T09:08:55.240Z,13.05
2022-09-06T09:11:25.543Z,11.32
2022-09-06T09:16:23.072Z,11.90
2022-09-06T09:18:53.853Z,11.48
2022-09-06T09:21:30.610Z,10.15
2022-09-06T09:24:03.338Z,11.23
2022-09-06T09:26:36.611Z,10.50
2022-09-06T09:29:06.990Z,11.18
2022-09-06T09:31:36.220Z,11.63
2022-09-06T09:34:04.975Z,9.82
2022-09-06T09:36:33.007Z,11.43
2022-09-06T09:39:11.951Z,9.65
2022-09-06T09:41:43.054Z,9.43
2022-09-06T09:44:16.421Z,9.18
2022-09-06T09:46:43.221Z,9.82
2022-09-06T09:49:31.086Z,12.85
2022-09-06T09:52:13.683Z,9.98
2022-09-06T09:54:48.076Z,11.82
2022-09-06T09:57:18.578Z,13.10
2022-09-06T09:59:55.964Z,11.00
2022-09-06T10:02:36.266Z,9.98
2022-09-06T10:05:16.005Z,11.32
2022-09-06T10:07:44.422Z,12.38
2022-09-06T10:10:12.729Z,11.27
2022-09-06T10:12:41.155Z,10.82
2022-09-06T10:15:10.308Z,11.90
2022-09-06T10:17:48.147Z,11.38
2022-09-06T10:20:14.833Z,9.73
2022-09-06T10:23:13.223Z,9.10
2022-09-06T10:25:46.358Z,9.32
2022-09-06T10:28:46.079Z,7.38
2022-09-06T10:31:39.489Z,7.65
2022-09-06T10:34:34.587Z,7.82
2022-09-06T10:37:56.412Z,8.60
2022-09-06T10:40:53.571Z,8.32
2022-09-06T10:43:20.475Z,8.25
2022-09-06T10:45:58.028Z,7.45
2022-09-06T10:48:35.777Z,6.50
2022-09-06T10:51:39.837Z,6.50
2022-09-06T10:54:21.030Z,6.63
2022-09-06T11:00:16.735Z,7.57
2022-09-06T11:05:46.467Z,7.60
2022-09-06T11:08:47.374Z,5.57
2022-09-06T11:11:36.114Z,5.22
2022-09-06T11:14:12.155Z,6.60
2022-09-06T11:17:28.129Z,5.50
2022-09-06T11:20:08.651Z,4.93
2022-09-06T11:22:56.962Z,3.88
2022-09-06T11:25:37.359Z,5.13
2022-09-06T11:28:08.796Z,5.95
2022-09-06T11:30:35.644Z,6.88
2022-09-06T11:33:11.825Z,5.20
2022-09-06T11:35:41.715Z,5.45
2022-09-06T11:38:14.251Z,6.10
2022-09-06T11:40:46.349Z,6.85
2022-09-06T11:43:37.779Z,7.03
2022-09-06T11:46:04.479Z,6.18
2022-09-06T11:48:34.614Z,5.40
2022-09-06T11:53:54.849Z,5.90
2022-09-06T11:56:49.597Z,6.18
2022-09-06T11:59:16.102Z,7.13
2022-09-06T12:02:00.184Z,8.00
2022-09-06T12:05:01.735Z,7.47
2022-09-06T12:07:31.765Z,9.27
2022-09-06T12:10:02.031Z,8.52
2022-09-06T12:12:48.690Z,8.77
2022-09-06T12:15:51.849Z,9.73
2022-09-06T12:18:45.350Z,8.43
2022-09-06T12:21:31.825Z,8.25
2022-09-06T12:24:00.086Z,9.73
2022-09-06T12:26:51.987Z,8.45
2022-09-06T12:29:26.724Z,9.82
2022-09-06T12:32:19.349Z,7.93
2022-09-06T12:34:47.209Z,9.57
2022-09-06T12:37:13.853Z,8.82
2022-09-06T12:39:40.564Z,8.18
2022-09-06T12:42:13.508Z,9.95
2022-09-06T12:44:51.075Z,7.85
2022-09-06T12:47:30.979Z,11.82
2022-09-06T12:50:18.037Z,9.55
2022-09-06T12:52:52.695Z,9.05
2022-09-06T12:55:25.940Z,8.75
2022-09-06T12:57:55.582Z,8.27
2022-09-06T13:00:24.178Z,8.68
2022-09-06T13:03:05.757Z,10.20
2022-09-06T13:05:32.715Z,9.00
2022-09-06T13:08:03.298Z,9.23
2022-09-06T13:10:29.979Z,9.73
2022-09-06T13:12:58.683Z,9.50
2022-09-06T13:15:32.104Z,8.23
2022-09-06T13:18:27.834Z,9.15
2022-09-06T13:21:00.211Z,7.28
2022-09-06T13:23:27.233Z,6.97
2022-09-06T13:25:55.762Z,6.47
2022-09-06T13:28:30.674Z,8.80
2022-09-06T13:31:33.916Z,7.10
2022-09-06T13:34:00.550Z,8.13
2022-09-06T13:36:31.042Z,8.32
2022-09-06T13:38:58.088Z,8.25
2022-09-06T13:41:24.626Z,8.38
2022-09-06T13:44:00.213Z,8.27
2022-09-06T13:46:27.237Z,9.98
2022-09-06T13:48:55.147Z,5.18
2022-09-06T13:51:21.986Z,6.72
2022-09-06T13:53:49.067Z,4.72
2022-09-06T13:56:16.854Z,6.50
2022-09-06T13:58:45.246Z,9.65
2022-09-06T14:01:12.152Z,6.68
2022-09-06T14:03:42.117Z,7.82
2022-09-06T14:06:09.987Z,4.85
2022-09-06T14:09:02.923Z,5.43
2022-09-06T14:11:25.562Z,5.35
2022-09-06T14:13:52.095Z,5.15
2022-09-06T14:16:18.754Z,5.03
2022-09-06T14:18:45.429Z,4.38
2022-09-06T14:21:12.098Z,5.45
2022-09-06T14:23:38.821Z,5.05
2022-09-06T14:26:05.602Z,5.18
2022-09-06T14:28:33.673Z,4.88
2022-09-06T14:31:17.200Z,6.88
2022-09-06T14:33:44.028Z,4.60
2022-09-06T14:36:13.701Z,5.13
2022-09-06T14:41:09.509Z,4.10
2022-09-06T14:43:36.955Z,4.30
2022-09-06T14:46:06.910Z,4.75
2022-09-06T14:48:34.369Z,4.72
2022-09-06T14:51:19.186Z,6.10
2022-09-06T14:53:46.479Z,5.35
2022-09-06T14:56:13.431Z,8.63
2022-09-06T14:58:41.788Z,5.30
2022-09-06T15:01:20.496Z,5.18
2022-09-06T15:03:51.857Z,5.53
2022-09-06T15:06:22.858Z,4.88
2022-09-06T15:08:50.211Z,4.82
2022-09-06T15:11:36.764Z,5.55
2022-09-06T15:14:06.275Z,5.95
2022-09-06T15:16:32.920Z,4.15
2022-09-06T15:18:59.456Z,3.80
2022-09-06T15:21:26.497Z,6.32
2022-09-06T15:23:53.313Z,3.72
2022-09-06T15:26:20.513Z,5.50
2022-09-06T15:28:47.386Z,5.00
2022-09-06T15:31:14.698Z,6.00
2022-09-06T15:33:42.015Z,4.97
2022-09-06T15:36:10.265Z,5.30
2022-09-06T15:38:49.750Z,5.35
2022-09-06T15:41:25.641Z,5.25
2022-09-06T15:44:00.558Z,3.83
2022-09-06T15:46:36.642Z,4.05
2022-09-06T15:49:07.054Z,5.22
2022-09-06T15:51:35.452Z,7.45
2022-09-06T15:54:02.002Z,4.63
2022-09-06T15:56:28.652Z,5.03
2022-09-06T15:58:57.438Z,3.40
2022-09-06T16:01:25.775Z,3.67
2022-09-06T16:04:05.661Z,4.03
2022-09-06T16:06:39.681Z,3.85
2022-09-06T16:09:09.722Z,4.65
2022-09-06T16:14:09.862Z,4.90
2022-09-06T16:16:36.444Z,6.47
2022-09-06T16:19:03.211Z,5.07
2022-09-06T16:21:32.424Z,5.40
2022-09-06T16:24:04.458Z,8.07
2022-09-06T16:26:34.021Z,6.15
2022-09-06T16:29:01.270Z,5.78
2022-09-06T16:31:28.927Z,7.88
2022-09-06T16:33:57.775Z,6.05
2022-09-06T16:36:25.746Z,5.90
2022-09-06T16:38:58.779Z,5.25
2022-09-06T16:41:26.890Z,6.63
2022-09-06T16:43:53.748Z,5.60
2022-09-06T16:46:22.360Z,6.95
2022-09-06T16:49:01.481Z,5.93
2022-09-06T16:51:29.999Z,6.95
2022-09-06T16:53:57.139Z,6.10
2022-09-06T16:56:27.047Z,6.55
2022-09-06T16:58:59.891Z,6.28
2022-09-06T17:01:28.155Z,7.68
2022-09-06T17:03:55.348Z,8.20
2022-09-06T17:06:23.082Z,6.35
2022-09-06T17:09:19.464Z,7.32
2022-09-06T17:11:50.028Z,5.45
2022-09-06T17:14:16.737Z,5.90
2022-09-06T17:17:07.177Z,6.53
2022-09-06T17:19:36.633Z,6.82
2022-09-06T17:22:04.712Z,5.88
2022-09-06T17:24:31.398Z,6.93
2022-09-06T17:27:24.755Z,7.10
2022-09-06T17:29:51.342Z,5.63
2022-09-06T17:32:17.878Z,6.03
2022-09-06T17:34:44.409Z,6.95
2022-09-06T17:37:37.266Z,5.80
2022-09-06T17:40:04.208Z,6.80
2022-09-06T17:42:31.619Z,6.43
2022-09-06T17:44:58.150Z,6.38
2022-09-06T17:47:24.821Z,5.45
2022-09-06T17:49:51.303Z,6.10
2022-09-06T17:52:17.815Z,5.85
2022-09-06T17:54:44.609Z,7.85
2022-09-06T17:57:11.269Z,6.47
2022-09-06T17:59:38.590Z,6.93
2022-09-06T18:02:05.430Z,6.25
2022-09-06T18:04:32.229Z,7.15
2022-09-06T18:06:58.848Z,10.82
2022-09-06T18:09:25.497Z,6.78
2022-09-06T18:11:52.048Z,8.75
2022-09-06T18:14:20.952Z,8.50
2022-09-06T18:16:49.528Z,7.68
2022-09-06T18:19:17.774Z,6.28
2022-09-06T18:21:44.721Z,8.85
2022-09-06T18:24:13.903Z,8.63
2022-09-06T18:26:41.638Z,8.20
2022-09-06T18:29:11.703Z,8.57
2022-09-06T18:31:38.995Z,5.88
2022-09-06T18:34:06.991Z,9.52
2022-09-06T18:36:33.587Z,8.82
2022-09-06T18:39:03.146Z,11.13
2022-09-06T18:41:48.816Z,8.85
2022-09-06T18:44:16.666Z,7.82
2022-09-06T18:46:43.838Z,7.97
2022-09-06T18:49:11.323Z,6.97
2022-09-06T18:51:39.648Z,7.55
2022-09-06T18:54:07.009Z,8.82
2022-09-06T18:56:33.722Z,7.20
2022-09-06T18:59:02.190Z,6.80
2022-09-06T19:01:30.141Z,8.07
2022-09-06T19:03:58.210Z,8.13
2022-09-06T19:06:26.257Z,8.00
2022-09-06T19:08:53.923Z,8.50
2022-09-06T19:11:21.921Z,6.00
2022-09-06T19:13:51.759Z,6.68
2022-09-06T19:16:18.886Z,8.40
2022-09-06T19:18:45.858Z,6.43
2022-09-06T19:21:19.142Z,8.32
2022-09-06T19:23:48.159Z,7.28
2022-09-06T19:26:18.191Z,7.22
2022-09-06T19:28:53.687Z,7.95
2022-09-06T19:31:20.597Z,11.25
2022-09-06T19:33:49.025Z,8.50
2022-09-06T19:36:16.982Z,6.32
2022-09-06T19:41:37.029Z,9.02
2022-09-06T19:44:05.814Z,9.50
2022-09-06T19:46:32.992Z,9.55
2022-09-06T19:49:00.555Z,11.27
2022-09-06T19:51:27.384Z,12.13
2022-09-06T19:53:57.727Z,10.88
2022-09-06T19:56:26.927Z,10.73
2022-09-06T19:58:57.180Z,10.45
2022-09-06T20:01:25.950Z,10.88
2022-09-06T20:03:53.313Z,10.10
2022-09-06T20:06:20.113Z,10.18
2022-09-06T20:08:51.209Z,11.35
2022-09-06T20:11:19.746Z,10.85
2022-09-06T20:13:46.458Z,10.48
2022-09-06T20:16:13.989Z,15.45
2022-09-06T20:18:40.849Z,10.38
2022-09-06T20:21:07.902Z,11.95
2022-09-06T20:23:35.476Z,13.57
2022-09-06T20:26:05.563Z,10.35
2022-09-06T20:28:33.320Z,9.98
2022-09-06T20:31:02.287Z,11.60
2022-09-06T20:33:29.663Z,10.05
2022-09-06T20:35:57.880Z,12.98
2022-09-06T20:38:25.480Z,10.52
2022-09-06T20:41:05.189Z,10.13
2022-09-06T20:43:36.708Z,17.10
2022-09-06T20:46:14.548Z,11.02
2022-09-06T20:48:44.861Z,10.05
2022-09-06T20:51:19.452Z,12.75
2022-09-06T20:53:48.658Z,12.18
2022-09-06T20:56:21.107Z,10.73
2022-09-06T20:58:50.089Z,11.75
2022-09-06T21:01:23.002Z,15.02
2022-09-06T21:03:52.506Z,13.35
2022-09-06T21:06:20.856Z,12.20
2022-09-06T21:08:48.376Z,14.00
2022-09-06T21:11:15.150Z,13.00
2022-09-06T21:13:42.120Z,12.75
2022-09-06T21:16:09.131Z,11.32
2022-09-06T21:18:36.617Z,11.73
2022-09-06T21:21:06.992Z,13.57
2022-09-06T21:23:38.526Z,12.27
2022-09-06T21:26:07.682Z,11.25
2022-09-06T21:28:39.892Z,13.32
2022-09-06T21:31:12.039Z,12.25
2022-09-06T21:33:43.902Z,14.10
2022-09-06T21:36:18.670Z,11.40
2022-09-06T21:38:47.405Z,10.23
2022-09-06T21:41:16.107Z,12.93
2022-09-06T21:43:43.585Z,11.80
2022-09-06T21:46:12.816Z,11.30
2022-09-06T21:48:49.287Z,13.18
2022-09-06T21:51:21.913Z,13.73
2022-09-06T21:53:50.311Z,13.40
2022-09-06T21:56:19.586Z,13.57
2022-09-06T21:58:58.383Z,12.68
2022-09-06T22:01:27.264Z,11.05
2022-09-06T22:03:54.269Z,10.48
2022-09-06T22:06:26.554Z,12.18
2022-09-06T22:08:56.202Z,9.85
2022-09-06T22:11:25.558Z,8.52
2022-09-06T22:13:52.525Z,9.85
2022-09-06T22:16:21.621Z,6.50
2022-09-06T22:18:51.490Z,7.43
2022-09-06T22:21:21.145Z,12.23
2022-09-06T22:23:53.068Z,9.15
2022-09-06T22:26:20.442Z,8.20
2022-09-06T22:32:34.114Z,14.35
2022-09-06T22:35:00.737Z,14.90
2022-09-06T22:37:45.872Z,11.50
2022-09-06T22:40:12.367Z,19.27
2022-09-06T22:42:38.883Z,15.50
2022-09-06T22:45:05.771Z,15.60
2022-09-06T22:47:33.926Z,10.65
2022-09-06T22:50:00.393Z,9.73
2022-09-06T22:52:31.264Z,6.18
2022-09-06T22:54:57.693Z,9.18
2022-09-06T22:57:26.962Z,12.43
2022-09-06T22:59:53.313Z,9.00
2022-09-06T23:02:19.673Z,10.55
2022-09-06T23:04:46.282Z,11.50
2022-09-06T23:07:13.125Z,6.07
2022-09-06T23:09:39.509Z,10.05
2022-09-06T23:12:06.136Z,10.38
2022-09-06T23:14:32.484Z,10.35
2022-09-06T23:16:59.340Z,12.05
2022-09-06T23:19:25.717Z,11.30
2022-09-06T23:21:52.074Z,16.75
2022-09-06T23:24:18.438Z,11.18
2022-09-06T23:26:44.817Z,14.95
2022-09-06T23:29:12.726Z,14.20
2022-09-06T23:31:39.368Z,13.00
2022-09-06T23:34:05.811Z,15.05
2022-09-06T23:36:32.501Z,13.82
2022-09-06T23:38:59.053Z,13.13
2022-09-06T23:41:25.544Z,12.68
2022-09-06T23:43:51.938Z,14.77
2022-09-06T23:46:18.542Z,14.65
2022-09-06T23:48:45.195Z,12.63
2022-09-06T23:51:12.312Z,14.65
2022-09-06T23:53:39.210Z,11.38
2022-09-06T23:56:05.862Z,10.35
2022-09-06T23:58:32.438Z,12.13
